Time;durP1;ratioP1;P1;durP2;ratioP2;P2;SDS_P1;SDS_P2;PMS_P1;PMS_P2;Temp;Humidity;BMP_temperature;BMP_pressure;BME280_temperature;BME280_humidity;BME280_pressure;Samples;Min_cycle;Max_cycle;Signal;HPM_P1;HPM_P2
2023/04/16 00:00:47;;;;;;;0.73;0.30;;;;;;;;;;6285311;22;20026;-77
2023/04/16 00:03:13;;;;;;;0.80;0.20;;;18.90;80.30;;;;;;6284941;22;20082;-76
2023/04/16 00:05:39;;;;;;;0.70;0.70;;;18.70;80.30;;;;;;6285294;22;20027;-75
2023/04/16 00:08:04;;;;;;;1.73;0.30;;;18.70;72.50;;;;;;6273363;22;20003;-76
2023/04/16 00:10:30;;;;;;;0.73;0.32;;;;;;;;;;6285287;22;20338;-77
2023/04/16 00:12:56;;;;;;;1.23;0.40;;;;;;;;;;6285322;22;19992;-76
2023/04/16 00:15:23;;;;;;;1.50;0.40;;;;;;;;;;6285239;22;20331;-75
2023/04/16 00:17:48;;;;;;;0.82;0.35;;;;;;;;;;6285301;22;20383;-75
2023/04/16 00:20:14;;;;;;;1.10;0.45;;;;;;;;;;6285931;22;20015;-76
2023/04/16 00:22:40;;;;;;;1.95;0.50;;;;;;;;;;6277237;22;20000;-76
2023/04/16 00:25:07;;;;;;;0.70;0.20;;;;;;;;;;6287041;22;20004;-76
2023/04/16 00:27:32;;;;;;;1.25;0.30;;;;;;;;;;6287084;22;20014;-75
2023/04/16 00:29:58;;;;;;;1.60;0.45;;;;;;;;;;6287171;22;20423;-75
2023/04/16 00:32:24;;;;;;;2.22;0.57;;;;;;;;;;6287212;22;20076;-76
2023/04/16 00:34:50;;;;;;;1.52;0.50;;;;;;;;;;6287036;22;20000;-75
2023/04/16 00:37:16;;;;;;;0.88;0.35;;;;;;;;;;6286908;22;20006;-76
2023/04/16 00:39:42;;;;;;;0.55;0.47;;;18.80;79.80;;;;;;6286826;22;20350;-75
2023/04/16 00:42:08;;;;;;;2.78;0.40;;;18.90;80.20;;;;;;6275062;22;20000;-77
2023/04/16 00:44:36;;;;;;;2.40;0.60;;;18.60;79.90;;;;;;6286921;22;20000;-76
2023/04/16 00:47:02;;;;;;;2.03;0.70;;;18.60;80.50;;;;;;6286974;22;19992;-76
2023/04/16 00:49:29;;;;;;;1.33;0.50;;;18.60;47.80;;;;;;6286960;22;20508;-75
2023/04/16 00:51:55;;;;;;;1.98;0.52;;;18.70;80.10;;;;;;6286987;22;20004;-80
2023/04/16 00:54:21;;;;;;;1.08;0.43;;;18.80;80.40;;;;;;6286949;22;20027;-80
2023/04/16 00:56:47;;;;;;;1.63;0.50;;;;;;;;;;6275186;22;20381;-79
2023/04/16 00:59:12;;;;;;;1.40;0.50;;;18.60;80.50;;;;;;6286818;22;20000;-80
2023/04/16 01:01:38;;;;;;;2.05;0.57;;;;;;;;;;6286672;22;20015;-79
2023/04/16 01:04:05;;;;;;;1.00;0.32;;;;;;;;;;6286685;22;20450;-80
2023/04/16 01:06:31;;;;;;;0.90;0.57;;;18.60;80.80;;;;;;6276952;22;20312;-80
2023/04/16 01:08:57;;;;;;;2.55;0.60;;;18.30;80.60;;;;;;6283585;22;20054;-76
2023/04/16 01:11:23;;;;;;;2.63;0.50;;;18.70;75.50;;;;;;6286739;22;20000;-75
2023/04/16 01:13:49;;;;;;;3.40;0.50;;;;;;;;;;6286625;22;19996;-76
2023/04/16 01:16:15;;;;;;;1.15;0.60;;;;;;;;;;6286598;22;19996;-75
2023/04/16 01:18:40;;;;;;;1.42;0.55;;;18.50;65.00;;;;;;6286683;22;20126;-75
2023/04/16 01:21:06;;;;;;;1.25;0.60;;;;;;;;;;6286486;22;20008;-76
2023/04/16 01:23:32;;;;;;;2.45;0.40;;;;;;;;;;6286569;22;20427;-75
2023/04/16 01:25:58;;;;;;;0.65;0.38;;;18.60;80.20;;;;;;6286458;22;20002;-75
2023/04/16 01:28:24;;;;;;;1.58;0.47;;;18.30;80.00;;;;;;6286753;22;20069;-75
2023/04/16 01:30:50;;;;;;;0.52;0.30;;;;;;;;;;6286457;22;19996;-76
2023/04/16 01:33:17;;;;;;;1.55;0.47;;;18.60;80.50;;;;;;6286453;22;20335;-75
2023/04/16 01:35:43;;;;;;;1.58;0.65;;;18.50;80.20;;;;;;6286520;22;20406;-76
2023/04/16 01:38:09;;;;;;;0.40;0.30;;;18.00;79.50;;;;;;6286467;22;20051;-75
2023/04/16 01:40:36;;;;;;;0.77;0.47;;;18.40;49.70;;;;;;6286268;22;20008;-75
2023/04/16 01:43:02;;;;;;;0.90;0.40;;;18.40;80.80;;;;;;6286565;22;20330;-75
2023/04/16 01:45:28;;;;;;;2.50;0.43;;;;;;;;;;6286496;22;20024;-76
2023/04/16 01:47:54;;;;;;;1.25;0.40;;;18.20;81.00;;;;;;6286550;22;20346;-76
2023/04/16 01:50:20;;;;;;;1.63;0.65;;;18.40;81.00;;;;;;6286425;22;20081;-76
2023/04/16 01:52:46;;;;;;;1.70;0.32;;;18.40;56.30;;;;;;6286163;22;19996;-75
2023/04/16 01:55:12;;;;;;;2.17;0.57;;;18.10;80.80;;;;;;6286164;22;20007;-76
2023/04/16 01:57:38;;;;;;;1.13;0.32;;;18.30;80.80;;;;;;6286225;22;19996;-75
2023/04/16 02:00:04;;;;;;;2.55;0.55;;;18.20;80.80;;;;;;6286122;22;20453;-76
2023/04/16 02:02:30;;;;;;;1.15;0.40;;;18.30;81.00;;;;;;6285931;22;20004;-80
2023/04/16 02:04:56;;;;;;;1.10;0.40;;;18.10;80.70;;;;;;6286360;22;20073;-75
2023/04/16 02:07:22;;;;;;;0.90;0.40;;;18.40;80.70;;;;;;6286264;22;20349;-76
2023/04/16 02:09:49;;;;;;;1.50;0.50;;;;;;;;;;6286125;22;19999;-76
2023/04/16 02:12:15;;;;;;;2.53;0.30;;;18.00;80.60;;;;;;6274212;22;20349;-76
2023/04/16 02:14:41;;;;;;;0.80;0.60;;;18.20;80.70;;;;;;6276073;22;19992;-76
2023/04/16 02:17:07;;;;;;;1.58;0.55;;;17.90;80.70;;;;;;6276132;22;20007;-76
2023/04/16 02:19:33;;;;;;;1.73;0.60;;;;;;;;;;6285889;22;19995;-76
2023/04/16 02:22:00;;;;;;;2.50;0.70;;;18.40;80.60;;;;;;6286084;22;20457;-75
2023/04/16 02:24:26;;;;;;;1.45;0.63;;;18.10;80.80;;;;;;6286066;22;20002;-75
2023/04/16 02:26:52;;;;;;;1.90;0.90;;;;;;;;;;6286014;22;20078;-76
2023/04/16 02:29:18;;;;;;;1.23;0.35;;;;;;;;;;6285881;22;20465;-76
2023/04/16 02:31:45;;;;;;;1.77;0.50;;;;;;;;;;6285921;22;20000;-76
2023/04/16 02:34:11;;;;;;;1.52;0.50;;;18.20;74.50;;;;;;6274049;22;20447;-76
2023/04/16 02:36:36;;;;;;;1.80;0.47;;;18.40;80.10;;;;;;6285816;22;20003;-76
2023/04/16 02:39:02;;;;;;;2.70;0.63;;;18.30;81.20;;;;;;6285733;22;19995;-76
2023/04/16 02:41:28;;;;;;;2.30;0.40;;;18.20;81.20;;;;;;6286035;22;20000;-76
2023/04/16 02:43:53;;;;;;;1.40;0.50;;;18.10;81.20;;;;;;6285501;22;20024;-76
2023/04/16 02:46:19;;;;;;;1.13;0.55;;;17.90;81.20;;;;;;6285790;22;20465;-76
2023/04/16 02:48:44;;;;;;;1.77;0.50;;;18.00;69.60;;;;;;6285681;22;20000;-76
2023/04/16 02:51:10;;;;;;;1.02;0.40;;;;;;;;;;6285700;22;20466;-76
2023/04/16 02:53:36;;;;;;;1.40;0.50;;;18.20;80.30;;;;;;6285731;22;20000;-76
2023/04/16 02:56:02;;;;;;;1.80;0.52;;;18.10;80.90;;;;;;6285648;22;19996;-77
2023/04/16 02:58:27;;;;;;;0.70;0.40;;;18.00;80.60;;;;;;6285751;22;20022;-76
2023/04/16 03:00:53;;;;;;;3.58;0.73;;;18.00;80.80;;;;;;6285580;22;20004;-76
2023/04/16 03:03:20;;;;;;;1.85;0.52;;;17.90;80.80;;;;;;6273515;22;20380;-76
2023/04/16 03:05:46;;;;;;;1.70;0.65;;;18.10;60.30;;;;;;6285648;22;20003;-75
2023/04/16 03:08:12;;;;;;;0.82;0.43;;;17.90;81.10;;;;;;6285546;22;19991;-75
2023/04/16 03:10:37;;;;;;;2.15;0.60;;;17.90;80.80;;;;;;6285621;22;20053;-75
2023/04/16 03:13:03;;;;;;;1.05;0.60;;;17.90;80.90;;;;;;6285546;22;19995;-75
2023/04/16 03:15:30;;;;;;;1.30;0.82;;;17.90;81.30;;;;;;6285564;22;20003;-75
2023/04/16 03:17:56;;;;;;;1.58;0.60;;;;;;;;;;6285609;22;20374;-76
2023/04/16 03:20:21;;;;;;;1.02;0.40;;;18.10;82.10;;;;;;6285615;22;20007;-76
2023/04/16 03:22:47;;;;;;;1.67;0.65;;;17.60;70.50;;;;;;6285925;22;19996;-76
2023/04/16 03:25:13;;;;;;;0.85;0.40;;;;;;;;;;6285672;22;20078;-76
2023/04/16 03:27:39;;;;;;;0.98;0.30;;;18.10;68.40;;;;;;6285899;22;19996;-75
2023/04/16 03:30:11;;;;;;;1.83;0.50;;;18.10;78.00;;;;;;6285865;22;19999;-76
2023/04/16 03:32:37;;;;;;;0.82;0.40;;;;;;;;;;6285680;22;19992;-75
2023/04/16 03:35:04;;;;;;;1.80;0.50;;;17.80;57.00;;;;;;6285993;22;20006;-79
2023/04/16 03:37:29;;;;;;;2.10;0.95;;;18.00;81.80;;;;;;6286414;22;19991;-77
2023/04/16 03:39:55;;;;;;;1.52;0.60;;;17.80;81.80;;;;;;6285919;22;20065;-75
2023/04/16 03:42:20;;;;;;;2.28;0.88;;;17.80;59.90;;;;;;6286065;22;20331;-75
2023/04/16 03:44:46;;;;;;;0.77;0.52;;;;;;;;;;6286082;22;20053;-75
2023/04/16 03:47:12;;;;;;;0.93;0.50;;;;;;;;;;6273625;22;20023;-75
2023/04/16 03:49:38;;;;;;;1.10;0.60;;;;;;;;;;6275609;22;20023;-75
2023/04/16 03:52:04;;;;;;;1.85;0.50;;;18.00;81.80;;;;;;6285333;22;20003;-75
2023/04/16 03:54:30;;;;;;;1.40;0.45;;;17.90;81.50;;;;;;6286031;22;20049;-79
2023/04/16 03:56:55;;;;;;;1.60;0.60;;;17.80;81.90;;;;;;6287870;22;20061;-79
2023/04/16 03:59:21;;;;;;;1.23;0.57;;;18.00;82.10;;;;;;6288229;22;20010;-79
2023/04/16 04:01:47;;;;;;;2.25;0.68;;;18.00;60.60;;;;;;6287779;22;20015;-79
2023/04/16 04:04:13;;;;;;;2.45;0.70;;;18.00;72.40;;;;;;6275773;22;20039;-80
2023/04/16 04:06:39;;;;;;;0.95;0.47;;;17.40;82.10;;;;;;6276006;22;19992;-79
2023/04/16 04:09:05;;;;;;;3.65;0.85;;;17.60;81.80;;;;;;6276135;22;20035;-79
2023/04/16 04:11:31;;;;;;;1.45;0.68;;;17.60;80.30;;;;;;6287764;22;19992;-79
2023/04/16 04:13:57;;;;;;;0.98;0.50;;;;;;;;;;6287855;22;20000;-79
2023/04/16 04:16:23;;;;;;;1.75;0.52;;;;;;;;;;6287659;22;20003;-79
2023/04/16 04:18:49;;;;;;;1.55;0.50;;;;;;;;;;6287514;22;20000;-79
2023/04/16 04:21:15;;;;;;;1.25;0.55;;;;;;;;;;6287509;22;20037;-79
2023/04/16 04:23:41;;;;;;;1.33;0.47;;;17.80;66.90;;;;;;6275602;22;20000;-80
2023/04/16 04:26:07;;;;;;;1.73;0.50;;;;;;;;;;6286182;22;20000;-79
2023/04/16 04:28:34;;;;;;;1.10;0.75;;;17.90;82.20;;;;;;6275745;22;19999;-79
2023/04/16 04:31:00;;;;;;;0.93;0.60;;;17.90;82.00;;;;;;6287751;22;19991;-79
2023/04/16 04:33:27;;;;;;;1.83;0.55;;;17.60;81.60;;;;;;6275497;22;20455;-79
2023/04/16 04:35:53;;;;;;;0.75;0.30;;;17.70;66.90;;;;;;6275688;22;20015;-79
2023/04/16 04:38:20;;;;;;;1.50;0.60;;;17.80;81.60;;;;;;6287262;22;19996;-80
2023/04/16 04:40:47;;;;;;;3.38;0.80;;;;;;;;;;6287220;22;20019;-79
2023/04/16 04:43:13;;;;;;;3.10;0.50;;;;;;;;;;6287236;22;20066;-79
2023/04/16 04:45:39;;;;;;;1.95;0.80;;;;;;;;;;6287284;22;20023;-79
2023/04/16 04:48:05;;;;;;;1.15;0.50;;;17.80;57.90;;;;;;6287245;22;20003;-79
2023/04/16 04:50:31;;;;;;;1.67;0.50;;;;;;;;;;6286914;22;20000;-75
2023/04/16 04:52:56;;;;;;;1.70;0.60;;;17.80;81.90;;;;;;6287010;22;19999;-75
2023/04/16 04:55:22;;;;;;;1.33;0.50;;;;;;;;;;6286874;22;20431;-75
2023/04/16 04:57:49;;;;;;;0.82;0.35;;;17.70;81.10;;;;;;6286792;22;19992;-75
2023/04/16 05:00:15;;;;;;;0.95;0.60;;;;;;;;;;6286688;22;20082;-74
2023/04/16 05:02:41;;;;;;;3.20;0.55;;;;;;;;;;6286624;22;20441;-75
2023/04/16 05:05:07;;;;;;;1.50;0.50;;;17.80;62.40;;;;;;6286594;22;20002;-76
2023/04/16 05:07:33;;;;;;;1.30;0.45;;;;;;;;;;6286875;22;20066;-76
2023/04/16 05:09:59;;;;;;;0.70;0.40;;;17.70;81.40;;;;;;6274939;22;19996;-76
2023/04/16 05:12:25;;;;;;;1.42;0.65;;;17.40;81.20;;;;;;6286644;22;20006;-75
2023/04/16 05:14:51;;;;;;;2.25;0.50;;;;;;;;;;6274885;22;20031;-75
2023/04/16 05:17:16;;;;;;;1.75;0.77;;;17.70;50.70;;;;;;6286610;22;20079;-75
2023/04/16 05:19:42;;;;;;;0.60;0.50;;;17.70;81.60;;;;;;6286663;22;20039;-75
2023/04/16 05:22:07;;;;;;;0.75;0.45;;;17.20;82.40;;;;;;6286750;22;20027;-75
2023/04/16 05:24:33;;;;;;;1.08;0.57;;;17.70;83.20;;;;;;6286806;22;20002;-76
2023/04/16 05:26:59;;;;;;;2.00;0.52;;;17.50;80.70;;;;;;6286732;22;19995;-76
2023/04/16 05:29:24;;;;;;;1.58;0.50;;;17.60;80.70;;;;;;6286480;22;19998;-76
2023/04/16 05:31:50;;;;;;;2.05;0.50;;;;;;;;;;6286758;22;20042;-75
2023/04/16 05:34:16;;;;;;;1.20;0.45;;;;;;;;;;6276567;22;20061;-75
2023/04/16 05:36:42;;;;;;;1.38;0.40;;;17.70;81.80;;;;;;6286418;22;19992;-76
2023/04/16 05:39:07;;;;;;;1.33;0.65;;;17.30;82.10;;;;;;6286363;22;20050;-76
2023/04/16 05:41:33;;;;;;;1.60;0.70;;;17.40;81.60;;;;;;6286365;22;20023;-76
2023/04/16 05:43:59;;;;;;;0.98;0.47;;;17.60;81.40;;;;;;6286503;22;20031;-76
2023/04/16 05:46:25;;;;;;;1.98;0.60;;;17.60;72.20;;;;;;6286413;22;20053;-80
2023/04/16 05:48:51;;;;;;;1.00;0.57;;;;;;;;;;6286683;22;20067;-80
2023/04/16 05:51:17;;;;;;;1.52;0.60;;;;;;;;;;6286490;22;20023;-80
2023/04/16 05:53:43;;;;;;;1.17;0.40;;;;;;;;;;6274559;22;19999;-80
2023/04/16 05:56:09;;;;;;;0.90;0.70;;;;;;;;;;6286524;22;20029;-80
2023/04/16 05:58:35;;;;;;;1.25;0.60;;;17.60;81.00;;;;;;6286318;22;20320;-80
2023/04/16 06:01:01;;;;;;;0.73;0.60;;;17.60;52.90;;;;;;6286291;22;20008;-80
2023/04/16 06:03:27;;;;;;;0.60;0.45;;;;;;;;;;6286138;22;20079;-80
2023/04/16 06:05:53;;;;;;;1.38;0.50;;;;;;;;;;6286411;22;20304;-80
2023/04/16 06:08:18;;;;;;;1.38;0.40;;;17.40;83.20;;;;;;6286358;22;19999;-80
2023/04/16 06:10:47;;;;;;;1.70;0.50;;;17.30;83.40;;;;;;6286293;22;20101;-80
2023/04/16 06:13:13;;;;;;;1.95;0.38;;;;;;;;;;6286352;22;20070;-80
2023/04/16 06:15:39;;;;;;;1.65;0.65;;;17.10;82.80;;;;;;6286089;22;19991;-80
2023/04/16 06:18:04;;;;;;;1.40;0.60;;;17.50;62.00;;;;;;6273876;22;20007;-80
2023/04/16 06:20:30;;;;;;;1.08;0.70;;;17.20;81.90;;;;;;6286198;22;20030;-80
2023/04/16 06:22:56;;;;;;;1.77;0.60;;;17.30;83.40;;;;;;6286370;22;19992;-80
2023/04/16 06:25:22;;;;;;;2.05;0.57;;;17.60;84.20;;;;;;6286286;22;20000;-80
2023/04/16 06:27:47;;;;;;;1.35;0.90;;;17.40;83.80;;;;;;6286216;22;19996;-81
2023/04/16 06:30:14;;;;;;;0.98;0.50;;;17.30;84.10;;;;;;6286238;22;19996;-80
2023/04/16 06:32:41;;;;;;;1.00;0.57;;;18.10;53.60;;;;;;6286164;22;19996;-80
2023/04/16 06:35:07;;;;;;;0.60;0.40;;;17.30;84.00;;;;;;6286365;22;20498;-80
2023/04/16 06:37:33;;;;;;;1.15;0.60;;;17.30;84.50;;;;;;6276009;22;20038;-80
2023/04/16 06:39:59;;;;;;;1.38;0.50;;;17.50;64.40;;;;;;6286161;22;20003;-75
2023/04/16 06:42:25;;;;;;;1.50;0.65;;;17.30;71.60;;;;;;6276146;22;20053;-75
2023/04/16 06:44:51;;;;;;;2.53;0.80;;;;;;;;;;6286014;22;20003;-75
2023/04/16 06:47:17;;;;;;;1.30;0.85;;;17.40;82.20;;;;;;6284393;22;19992;-76
2023/04/16 06:49:43;;;;;;;1.38;0.63;;;;;;;;;;6285836;22;19996;-75
2023/04/16 06:52:09;;;;;;;0.70;0.50;;;;;;;;;;6285804;22;19995;-75
2023/04/16 06:54:35;;;;;;;1.10;0.60;;;16.90;83.00;;;;;;6274049;22;20562;-75
2023/04/16 06:57:01;;;;;;;0.80;0.60;;;17.40;76.50;;;;;;6285773;22;20003;-75
2023/04/16 06:59:26;;;;;;;2.15;0.65;;;17.50;83.10;;;;;;6285995;22;20003;-81
2023/04/16 07:01:52;;;;;;;0.90;0.47;;;17.50;82.40;;;;;;6285691;22;19999;-79
2023/04/16 07:04:17;;;;;;;0.93;0.60;;;17.30;82.70;;;;;;6285570;22;20117;-80
2023/04/16 07:06:43;;;;;;;1.85;0.70;;;;;;;;;;6285778;22;20150;-81
2023/04/16 07:09:09;;;;;;;0.98;0.55;;;17.40;82.80;;;;;;6285770;22;20002;-79
2023/04/16 07:11:35;;;;;;;1.77;0.82;;;17.50;83.30;;;;;;6273842;22;20043;-78
2023/04/16 07:14:01;;;;;;;1.80;0.80;;;;;;;;;;6285869;22;20382;-76
2023/04/16 07:16:27;;;;;;;1.58;0.70;;;;;;;;;;6285872;22;20094;-76
2023/04/16 07:18:53;;;;;;;1.08;0.50;;;;;;;;;;6285664;22;19996;-76
2023/04/16 07:21:19;;;;;;;3.42;0.98;;;;;;;;;;6285758;22;20442;-79
2023/04/16 07:23:45;;;;;;;0.85;0.68;;;17.40;77.60;;;;;;6285769;22;19999;-78
2023/04/16 07:26:11;;;;;;;3.45;0.80;;;17.50;84.20;;;;;;6285767;22;19996;-77
2023/04/16 07:28:37;;;;;;;0.93;0.70;;;;;;;;;;6285628;22;19995;-77
2023/04/16 07:31:03;;;;;;;1.38;0.70;;;;;;;;;;6285641;22;20067;-77
2023/04/16 07:33:29;;;;;;;1.77;0.80;;;;;;;;;;6285592;22;19996;-79
2023/04/16 07:35:55;;;;;;;3.53;0.85;;;17.40;70.50;;;;;;6285635;22;20327;-78
2023/04/16 07:38:20;;;;;;;1.15;0.85;;;17.50;83.80;;;;;;6285683;22;19991;-77
2023/04/16 07:40:46;;;;;;;1.45;0.90;;;17.40;83.60;;;;;;6285500;22;20050;-78
2023/04/16 07:43:14;;;;;;;1.67;0.80;;;17.10;83.90;;;;;;6285700;22;20461;-78
2023/04/16 07:45:39;;;;;;;2.38;0.90;;;16.90;83.50;;;;;;6285635;22;19999;-78
2023/04/16 07:48:05;;;;;;;1.70;0.95;;;;;;;;;;6285474;22;20031;-78
2023/04/16 07:50:31;;;;;;;2.05;1.05;;;17.10;83.00;;;;;;6275572;22;20062;-78
2023/04/16 07:52:57;;;;;;;3.80;1.15;;;17.40;82.90;;;;;;6275232;22;20432;-78
2023/04/16 07:55:23;;;;;;;4.00;1.05;;;17.20;82.80;;;;;;6275454;22;19996;-78
2023/04/16 07:57:51;;;;;;;2.83;0.80;;;;;;;;;;6275671;22;20050;-77
2023/04/16 08:00:17;;;;;;;2.95;1.02;;;17.50;82.80;;;;;;6275603;22;20012;-78
2023/04/16 08:02:43;;;;;;;3.60;1.23;;;17.40;83.50;;;;;;6275087;22;20003;-77
2023/04/16 08:05:10;;;;;;;2.70;1.05;;;17.30;84.30;;;;;;6275543;22;20003;-78
2023/04/16 08:07:36;;;;;;;5.45;1.33;;;17.50;83.80;;;;;;6275524;22;19996;-78
2023/04/16 08:10:02;;;;;;;3.53;0.98;;;17.40;83.40;;;;;;6275113;22;20297;-78
2023/04/16 08:12:28;;;;;;;2.53;1.20;;;17.40;83.60;;;;;;6275223;22;20424;-74
2023/04/16 08:14:55;;;;;;;2.80;1.25;;;;;;;;;;6275108;22;20439;-74
2023/04/16 08:17:21;;;;;;;1.95;1.00;;;;;;;;;;6274922;22;20046;-74
2023/04/16 08:19:47;;;;;;;1.48;1.10;;;;;;;;;;6285322;22;20011;-74
2023/04/16 08:22:13;;;;;;;2.95;1.30;;;17.30;82.30;;;;;;6285279;22;20284;-74
2023/04/16 08:24:39;;;;;;;2.90;1.20;;;17.40;81.20;;;;;;6285377;22;19996;-74
2023/04/16 08:27:04;;;;;;;3.22;1.42;;;17.50;61.80;;;;;;6285309;22;20330;-74
2023/04/16 08:29:31;;;;;;;3.03;1.35;;;17.40;84.80;;;;;;6285414;22;20446;-74
2023/04/16 08:31:57;;;;;;;2.30;1.10;;;;;;;;;;6285423;22;20075;-78
2023/04/16 08:34:23;;;;;;;3.25;1.17;;;;;;;;;;6285375;22;20015;-78
2023/04/16 08:36:49;;;;;;;2.42;1.45;;;;;;;;;;6285444;22;20007;-78
2023/04/16 08:39:15;;;;;;;2.47;1.20;;;;;;;;;;6273292;22;20000;-78
2023/04/16 08:41:43;;;;;;;3.70;1.42;;;17.40;53.50;;;;;;6286526;22;20008;-78
2023/04/16 08:44:17;;;;;;;4.93;1.67;;;17.40;53.50;;;;;;6287136;22;19996;-78
2023/04/16 08:46:43;;;;;;;2.30;1.25;;;17.50;78.00;;;;;;6287265;22;20439;-78
2023/04/16 08:49:16;;;;;;;2.55;1.20;;;17.60;84.40;;;;;;6275272;22;19996;-78
2023/04/16 08:51:48;;;;;;;3.78;1.48;;;17.40;53.70;;;;;;6277205;22;20293;-78
2023/04/16 08:54:36;;;;;;;2.05;1.50;;;17.40;80.10;;;;;;6287191;22;19992;-77
2023/04/16 08:57:05;;;;;;;1.95;1.58;;;17.50;84.90;;;;;;6287229;22;20006;-77
2023/04/16 08:59:31;;;;;;;2.35;1.80;;;17.20;54.30;;;;;;6286829;22;20008;-77
2023/04/16 09:01:58;;;;;;;4.43;1.77;;;;;;;;;;6287029;22;20069;-77
2023/04/16 09:04:27;;;;;;;2.47;1.13;;;17.20;58.60;;;;;;6286823;22;20339;-77
2023/04/16 09:06:56;;;;;;;2.70;1.35;;;17.20;81.80;;;;;;6277195;22;20097;-74
2023/04/16 09:09:22;;;;;;;2.40;1.00;;;17.40;82.00;;;;;;6286886;22;20326;-73
2023/04/16 09:11:51;;;;;;;3.00;1.13;;;17.50;77.80;;;;;;6286873;22;20067;-73
2023/04/16 09:14:17;;;;;;;3.20;1.50;;;17.40;50.00;;;;;;6286781;22;19999;-73
2023/04/16 09:16:46;;;;;;;2.25;1.45;;;17.10;81.40;;;;;;6274686;22;19996;-74
2023/04/16 09:19:12;;;;;;;2.33;1.45;;;17.30;82.20;;;;;;6286466;22;19999;-75
2023/04/16 09:21:40;;;;;;;3.78;1.67;;;17.70;81.70;;;;;;6275471;22;19996;-77
2023/04/16 09:24:10;;;;;;;6.55;1.63;;;17.40;81.70;;;;;;6276986;22;20003;-74
2023/04/16 09:26:36;;;;;;;2.83;1.52;;;17.70;82.00;;;;;;6285399;22;20010;-79
2023/04/16 09:29:02;;;;;;;3.00;1.70;;;17.30;81.60;;;;;;6286862;22;20062;-75
2023/04/16 09:31:28;;;;;;;3.58;1.80;;;;;;;;;;6286497;22;19991;-76
2023/04/16 09:34:05;;;;;;;2.38;1.50;;;17.50;50.90;;;;;;6286422;22;20331;-76
2023/04/16 09:36:31;;;;;;;6.30;2.10;;;17.50;59.70;;;;;;6276072;22;20074;-76
2023/04/16 09:38:58;;;;;;;2.97;1.33;;;17.50;50.70;;;;;;6286489;22;19996;-75
2023/04/16 09:41:28;;;;;;;2.88;1.40;;;17.70;83.60;;;;;;6286343;22;20015;-75
2023/04/16 09:43:56;;;;;;;5.20;1.50;;;17.30;82.80;;;;;;6286556;22;20002;-74
2023/04/16 09:46:22;;;;;;;2.17;1.50;;;17.30;69.00;;;;;;6286353;22;19999;-74
2023/04/16 09:48:48;;;;;;;4.90;1.52;;;;;;;;;;6286376;22;19996;-74
2023/04/16 09:51:14;;;;;;;3.55;1.40;;;;;;;;;;6286310;22;20077;-74
2023/04/16 09:53:40;;;;;;;3.20;1.58;;;17.50;83.00;;;;;;6286279;22;20487;-74
2023/04/16 09:56:06;;;;;;;2.50;1.40;;;17.60;81.50;;;;;;6286341;22;19996;-74
2023/04/16 09:58:35;;;;;;;3.17;1.70;;;17.60;81.50;;;;;;6286170;22;20488;-74
2023/04/16 10:01:11;;;;;;;2.35;1.88;;;17.50;48.40;;;;;;6286217;22;20020;-74
2023/04/16 10:03:38;;;;;;;3.53;1.77;;;17.50;81.20;;;;;;6275915;22;20334;-75
2023/04/16 10:06:18;;;;;;;2.75;1.77;;;17.50;81.40;;;;;;6286253;22;20010;-76
2023/04/16 10:08:51;;;;;;;4.72;1.77;;;17.50;83.10;;;;;;6286203;22;20327;-74
2023/04/16 10:11:19;;;;;;;2.13;1.90;;;17.70;82.90;;;;;;6286163;22;20321;-73
2023/04/16 10:13:45;;;;;;;2.78;1.60;;;;;;;;;;6286173;22;19996;-74
2023/04/16 10:16:12;;;;;;;2.13;1.92;;;17.40;59.60;;;;;;6286015;22;20045;-74
2023/04/16 10:18:40;;;;;;;4.30;1.92;;;17.70;83.70;;;;;;6286072;22;20483;-73
2023/04/16 10:21:06;;;;;;;2.72;1.70;;;17.70;83.20;;;;;;6286209;22;20014;-77
2023/04/16 10:23:33;;;;;;;2.97;1.88;;;;;;;;;;6286091;22;20063;-79
2023/04/16 10:26:00;;;;;;;3.05;2.13;;;16.70;51.80;;;;;;6286249;22;20331;-77
2023/04/16 10:28:28;;;;;;;2.42;1.70;;;17.50;83.00;;;;;;6286391;22;20431;-83
2023/04/16 10:30:55;;;;;;;2.40;1.65;;;17.50;71.60;;;;;;6286104;22;20000;-78
2023/04/16 10:33:26;;;;;;;2.08;1.63;;;17.60;78.50;;;;;;6286180;22;20365;-76
2023/04/16 10:36:15;;;;;;;4.30;1.88;;;17.70;83.30;;;;;;6286184;22;20000;-76
2023/04/16 10:38:46;;;;;;;4.38;1.90;;;17.30;83.10;;;;;;6286278;22;19995;-76
2023/04/16 10:41:12;;;;;;;4.88;2.08;;;17.60;83.40;;;;;;6285940;22;20011;-75
2023/04/16 10:43:49;;;;;;;4.68;2.30;;;17.50;52.10;;;;;;6275842;22;19992;-75
2023/04/16 10:46:23;;;;;;;3.17;2.15;;;17.60;82.40;;;;;;6285897;22;20257;-76
2023/04/16 10:48:51;;;;;;;4.15;1.63;;;17.60;58.90;;;;;;6285966;22;19992;-75
2023/04/16 10:51:34;;;;;;;3.05;1.73;;;17.40;57.90;;;;;;6286003;22;19996;-75
2023/04/16 10:54:11;;;;;;;3.38;2.28;;;17.70;82.70;;;;;;6285958;22;20053;-75
2023/04/16 10:56:37;;;;;;;8.20;2.22;;;17.40;61.80;;;;;;6286100;22;20384;-77
2023/04/16 10:59:08;;;;;;;4.18;2.40;;;17.50;49.00;;;;;;6285962;22;19999;-76
2023/04/16 11:01:42;;;;;;;8.27;2.83;;;17.10;83.40;;;;;;6286203;22;20004;-80
2023/04/16 11:04:20;;;;;;;8.13;2.47;;;17.60;84.20;;;;;;6273801;22;20015;-76
2023/04/16 11:07:13;;;;;;;5.68;3.05;;;17.50;84.30;;;;;;6285922;22;20004;-81
2023/04/16 11:10:01;;;;;;;4.60;2.55;;;16.20;48.60;;;;;;6286081;22;19999;-74
2023/04/16 11:12:38;;;;;;;3.88;2.50;;;17.30;52.80;;;;;;6286048;22;20024;-73
2023/04/16 11:15:07;;;;;;;7.32;2.78;;;17.40;81.30;;;;;;6285937;22;20019;-74
2023/04/16 11:17:46;;;;;;;6.78;2.67;;;17.60;49.40;;;;;;6285678;22;20003;-76
2023/04/16 11:20:17;;;;;;;7.30;2.67;;;17.50;49.30;;;;;;6285906;22;20177;-75
2023/04/16 11:22:44;;;;;;;;;;;17.40;54.10;;;;;;6286662;22;20004;-75
2023/04/16 11:25:11;;;;;;;5.38;2.30;;;17.50;51.50;;;;;;6286400;22;19899;-77
2023/04/16 11:27:37;;;;;;;3.58;2.28;;;;;;;;;;6274201;22;20355;-73
2023/04/16 11:30:05;;;;;;;6.70;3.10;;;17.60;52.40;;;;;;6286055;22;20074;-73
2023/04/16 11:32:35;;;;;;;4.75;2.60;;;17.50;52.80;;;;;;6286657;22;19996;-75
2023/04/16 11:35:04;;;;;;;3.95;2.75;;;17.80;83.70;;;;;;6286661;22;20026;-75
2023/04/16 11:37:37;;;;;;;4.20;2.20;;;17.60;49.40;;;;;;6276475;22;20004;-74
2023/04/16 11:40:05;;;;;;;5.20;2.67;;;17.60;52.00;;;;;;6286189;22;19996;-77
2023/04/16 11:42:32;;;;;;;8.05;2.70;;;17.50;83.60;;;;;;6286348;22;20327;-78
2023/04/16 11:45:01;;;;;;;5.05;2.72;;;17.50;83.80;;;;;;6285968;22;19999;-77
2023/04/16 11:47:28;;;;;;;4.65;2.85;;;17.20;83.50;;;;;;6274079;22;20000;-83
2023/04/16 11:49:54;;;;;;;4.68;2.80;;;17.20;83.70;;;;;;6286053;22;20026;-81
2023/04/16 11:52:31;;;;;;;8.25;3.20;;;17.40;83.90;;;;;;6284616;22;19996;-77
2023/04/16 11:54:58;;;;;;;4.97;3.38;;;17.60;52.90;;;;;;6275390;22;20003;-74
2023/04/16 11:57:29;;;;;;;4.68;2.72;;;17.20;83.80;;;;;;6275800;22;20315;-81
2023/04/16 11:59:59;;;;;;;4.43;3.00;;;17.30;83.10;;;;;;6275342;22;20016;-79
2023/04/16 12:02:38;;;;;;;5.28;2.83;;;17.40;83.50;;;;;;6275499;22;20457;-86
2023/04/16 12:05:07;;;;;;;5.57;3.15;;;17.60;52.70;;;;;;6276642;22;20032;-79
2023/04/16 12:07:44;;;;;;;6.45;3.03;;;17.50;49.60;;;;;;6276239;22;19992;-78
2023/04/16 12:10:11;;;;;;;5.78;2.67;;;20.10;52.40;;;;;;6276208;22;20089;-78
2023/04/16 12:12:37;;;;;;;4.28;2.88;;;17.70;64.60;;;;;;6276372;22;19996;-80
2023/04/16 12:15:03;;;;;;;5.13;2.50;;;17.10;52.20;;;;;;6276200;22;19996;-78
2023/04/16 12:17:32;;;;;;;8.68;3.20;;;17.60;52.90;;;;;;6277448;22;20047;-78
2023/04/16 12:19:59;;;;;;;3.72;2.72;;;17.80;84.30;;;;;;6287544;22;20012;-78
2023/04/16 12:22:31;;;;;;;3.47;2.40;;;17.50;69.70;;;;;;6277398;22;20487;-79
2023/04/16 12:25:16;;;;;;;4.03;2.75;;;17.50;62.50;;;;;;6277954;22;20000;-79
2023/04/16 12:27:45;;;;;;;3.40;2.35;;;17.60;53.00;;;;;;6287876;22;19996;-80
2023/04/16 12:30:11;;;;;;;4.55;2.78;;;17.50;56.40;;;;;;6287947;22;20003;-78
2023/04/16 12:32:37;;;;;;;4.47;2.75;;;17.50;83.30;;;;;;6287997;22;20050;-78
2023/04/16 12:35:04;;;;;;;5.25;2.83;;;17.60;81.00;;;;;;6287809;22;19996;-78
2023/04/16 12:37:29;;;;;;;2.65;2.10;;;17.80;83.20;;;;;;6275462;22;20000;-78
2023/04/16 12:39:55;;;;;;;3.25;2.53;;;;;;;;;;6287505;22;20018;-79
2023/04/16 12:42:21;;;;;;;5.43;2.70;;;;;;;;;;6287366;22;20062;-79
2023/04/16 12:44:48;;;;;;;4.45;2.55;;;;;;;;;;6277412;22;19999;-79
2023/04/16 12:47:14;;;;;;;3.08;2.53;;;17.70;83.20;;;;;;6277176;22;20006;-79
2023/04/16 12:49:40;;;;;;;3.88;2.88;;;17.90;83.20;;;;;;6277381;22;20008;-78
2023/04/16 12:52:05;;;;;;;3.72;2.58;;;17.70;83.20;;;;;;6287231;22;20327;-79
2023/04/16 12:54:31;;;;;;;2.67;2.28;;;17.90;83.50;;;;;;6276891;22;19996;-79
2023/04/16 12:56:57;;;;;;;3.17;2.60;;;17.70;83.90;;;;;;6277366;22;19996;-78
2023/04/16 12:59:23;;;;;;;4.35;2.80;;;17.70;84.00;;;;;;6276881;22;20002;-79
2023/04/16 13:01:49;;;;;;;4.95;2.45;;;17.80;84.00;;;;;;6276628;22;20011;-78
2023/04/16 13:04:17;;;;;;;4.78;2.80;;;17.80;83.60;;;;;;6276418;22;20015;-78
2023/04/16 13:06:44;;;;;;;3.67;2.60;;;17.80;71.40;;;;;;6276827;22;19996;-76
2023/04/16 13:09:10;;;;;;;3.03;2.13;;;17.70;53.10;;;;;;6276713;22;19992;-76
2023/04/16 13:11:37;;;;;;;4.97;2.40;;;;;;;;;;6276664;22;20533;-76
2023/04/16 13:14:03;;;;;;;4.10;2.65;;;;;;;;;;6276522;22;20003;-77